TFM - Tactical Decision Aid
ID: Runway Winds: CIG/VIS Threshold:

KSEA - Seattle-Tacoma Intl, WA, US

Updated at: 1310 UTC 15 Jul 2020
Latest TAF at: 1144 UTC 15 Jul 2020

TAF Board

Time1253Z 15/14Z 15/15Z 15/16Z 15/17Z 15/18Z 15/19Z 15/20Z 15/21Z 15/22Z 15/23Z 16/00Z 16/01Z 16/02Z>>
Type OBS PRVL PRVL PRVL PRVL PRVL PRVL PRVL PRVL PRVL PRVL PRVL PRVL PRVL
VIS 10 >6 >6 >6 >6 >6 >6 >6 >6 >6 >6 >6 >6 >6
CIG -- -- -- -- -- -- -- -- -- -- -- -- -- --
Cover SCT SKC SKC SKC SKC SKC SKC SCT SCT SCT SCT SCT SCT SCT
FltCat VFR VFR VFR VFR VFR VFR VFR VFR VFR VFR VFR VFR VFR VFR
WX -- -- -- -- -- -- -- -- -- -- -- -- -- --
WDir VRB 20 20 20 20 VRB VRB 310 310 310 310 310 310 310
WSpd 0 6 6 6 6 4 4 8 8 8 8 8 8 8
WGst -- -- -- -- -- -- -- -- -- -- -- -- -- --

TDA Impact Legend

  None Marginal Slight Moderate High
Visibility (sm) >5 3≤X≤5 1≤X<3 0.5≤X<1 <0.5
Ceiling (100 ft) >30 10≤X≤30 4≤X<10 2≤X<4 <2
Wind Speed (kt) <15 15≤X<25 25≤X<30 ≥30
Wind Gust (kt) <15 15≤X<25 25≤X<35 ≥35
Weather No Wx Reported VCTS -TS,-FZRA TS,FZRA +TS,+FZRA
TAF
KSEA 151144Z 1512/1618 02006KT P6SM SKC
  FM151800 VRB04KT P6SM SKC
  FM152000 31008KT P6SM SCT100
  FM160300 32003KT P6SM FEW120
  FM160600 03005KT P6SM SCT080
  FM161200 20006KT P6SM SCT030
  TEMPO 1612/1615 P6SM BKN020


METAR
KSEA 151253Z 00000KT 10SM SCT250 15/08 A3014 RMK AO2 SLP210 T01500083
KSEA 151153Z 01004KT 10SM SCT250 15/08 A3013 RMK AO2 SLP208 T01500083 10206 20144 55001
KSEA 151053Z 01007KT 10SM CLR 16/08 A3013 RMK AO2 SLP206 T01610083
KSEA 150953Z 01007KT 10SM CLR 17/08 A3013 RMK AO2 SLP207 T01670083

Radar Display
Forecast Discussion